createdAt,value
2023-03-12T00:00:48.881Z,60.27
2023-03-12T00:03:15.637Z,60.19
2023-03-12T00:05:44.028Z,60.01
2023-03-12T00:08:11.745Z,60.00
2023-03-12T00:10:40.307Z,60.06
2023-03-12T00:13:07.960Z,59.89
2023-03-12T00:15:39.410Z,60.21
2023-03-12T00:18:06.158Z,59.47
2023-03-12T00:20:33.053Z,60.21
2023-03-12T00:22:59.827Z,59.75
2023-03-12T00:25:26.343Z,59.63
2023-03-12T00:27:52.880Z,59.91
2023-03-12T00:30:19.474Z,59.59
2023-03-12T00:32:46.105Z,60.09
2023-03-12T00:35:12.710Z,59.52
2023-03-12T00:37:39.559Z,59.45
2023-03-12T00:40:09.170Z,59.18
2023-03-12T00:42:35.759Z,59.15
2023-03-12T00:45:02.293Z,59.32
2023-03-12T00:47:28.804Z,59.79
2023-03-12T00:49:55.343Z,59.05
2023-03-12T00:52:21.866Z,59.06
2023-03-12T00:54:48.413Z,59.02
2023-03-12T00:57:14.943Z,58.57
2023-03-12T00:59:42.273Z,59.11
2023-03-12T01:02:09.317Z,59.08
2023-03-12T01:04:35.981Z,59.32
2023-03-12T01:07:02.498Z,59.41
2023-03-12T01:09:29.036Z,59.88
2023-03-12T01:11:55.610Z,58.95
2023-03-12T01:14:22.310Z,59.61
2023-03-12T01:16:50.872Z,59.01
2023-03-12T01:19:19.124Z,59.67
2023-03-12T01:21:45.699Z,58.60
2023-03-12T01:24:12.277Z,59.21
2023-03-12T01:26:38.770Z,58.59
2023-03-12T01:29:05.400Z,59.37
2023-03-12T01:31:31.981Z,58.94
2023-03-12T01:33:58.581Z,60.50
2023-03-12T01:36:28.483Z,59.99
2023-03-12T01:38:57.599Z,60.44
2023-03-12T01:41:26.492Z,59.62
2023-03-12T01:43:53.012Z,60.01
2023-03-12T01:46:39.752Z,61.07
2023-03-12T01:49:09.104Z,62.75
2023-03-12T01:51:41.849Z,61.70
2023-03-12T01:54:20.439Z,60.23
2023-03-12T01:56:47.756Z,61.53
2023-03-12T01:59:20.648Z,61.07
2023-03-12T02:01:48.664Z,62.11
2023-03-12T02:04:18.127Z,61.07
2023-03-12T02:07:05.561Z,60.62
2023-03-12T02:09:41.022Z,60.29
2023-03-12T02:12:08.400Z,59.93
2023-03-12T02:14:35.097Z,60.24
2023-03-12T02:17:01.793Z,59.40
2023-03-12T02:19:41.532Z,59.10
2023-03-12T02:22:09.974Z,59.76
2023-03-12T02:24:52.489Z,60.03
2023-03-12T02:27:21.496Z,60.93
2023-03-12T02:29:48.677Z,60.92
2023-03-12T02:32:24.532Z,60.63
2023-03-12T02:34:51.502Z,62.30
2023-03-12T02:37:19.304Z,61.79
2023-03-12T02:39:54.920Z,61.45
2023-03-12T02:42:24.062Z,61.07
2023-03-12T02:44:50.845Z,62.46
2023-03-12T02:47:17.404Z,62.36
2023-03-12T02:49:43.931Z,62.43
2023-03-12T02:52:10.876Z,62.22
2023-03-12T02:54:37.478Z,61.89
2023-03-12T02:57:04.181Z,60.86
2023-03-12T02:59:31.142Z,61.29
2023-03-12T03:01:59.998Z,60.88
2023-03-12T03:04:28.096Z,62.19
2023-03-12T03:06:54.820Z,62.65
2023-03-12T03:09:22.503Z,62.68
2023-03-12T03:11:50.855Z,63.54
2023-03-12T03:14:18.580Z,63.05
2023-03-12T03:16:45.636Z,62.07
2023-03-12T03:19:12.543Z,63.12
2023-03-12T03:21:39.155Z,63.91
2023-03-12T03:24:06.180Z,63.20
2023-03-12T03:26:32.847Z,62.77
2023-03-12T03:28:59.450Z,61.53
2023-03-12T03:31:26.150Z,62.67
2023-03-12T03:33:52.838Z,62.06
2023-03-12T03:36:19.907Z,61.17
2023-03-12T03:38:49.446Z,61.70
2023-03-12T03:41:17.722Z,62.30
2023-03-12T03:43:44.372Z,61.62
2023-03-12T03:46:13.170Z,61.95
2023-03-12T03:48:40.215Z,62.47
2023-03-12T03:51:10.442Z,62.33
2023-03-12T03:53:37.194Z,61.56
2023-03-12T03:56:09.196Z,61.38
2023-03-12T03:58:35.768Z,61.75
2023-03-12T04:01:02.584Z,61.94
2023-03-12T04:03:29.409Z,60.94
2023-03-12T04:06:00.836Z,61.83
2023-03-12T04:08:28.750Z,61.74
2023-03-12T04:10:55.705Z,61.62
2023-03-12T04:13:22.274Z,60.99
2023-03-12T04:15:50.846Z,61.73
2023-03-12T04:18:18.187Z,61.01
2023-03-12T04:20:45.025Z,60.33
2023-03-12T04:23:11.793Z,60.63
2023-03-12T04:25:38.748Z,60.61
2023-03-12T04:28:06.149Z,60.80
2023-03-12T04:30:33.119Z,60.63
2023-03-12T04:32:59.705Z,60.82
2023-03-12T04:35:26.329Z,59.60
2023-03-12T04:37:52.860Z,60.10
2023-03-12T04:40:20.009Z,60.22
2023-03-12T04:42:46.861Z,60.60
2023-03-12T04:45:13.502Z,60.09
2023-03-12T04:47:40.118Z,60.86
2023-03-12T04:50:07.187Z,61.03
2023-03-12T04:52:33.789Z,60.12
2023-03-12T04:55:00.574Z,60.67
2023-03-12T04:57:27.518Z,60.24
2023-03-12T04:59:54.227Z,60.70
2023-03-12T05:02:20.850Z,60.46
2023-03-12T05:04:47.466Z,60.33
2023-03-12T05:07:14.019Z,59.99
2023-03-12T05:09:40.621Z,60.51
2023-03-12T05:12:07.524Z,60.63
2023-03-12T05:14:34.087Z,61.64
2023-03-12T05:17:00.642Z,60.38
2023-03-12T05:19:27.247Z,60.74
2023-03-12T05:21:53.812Z,60.90
2023-03-12T05:24:22.062Z,60.64
2023-03-12T05:26:48.603Z,60.93
2023-03-12T05:29:15.205Z,60.01
2023-03-12T05:31:41.782Z,59.60
2023-03-12T05:34:08.490Z,59.69
2023-03-12T05:36:35.078Z,59.24
2023-03-12T05:39:01.633Z,59.74
2023-03-12T05:41:29.408Z,59.60
2023-03-12T05:43:57.240Z,58.58
2023-03-12T05:46:25.734Z,59.04
2023-03-12T05:48:53.178Z,58.38
2023-03-12T05:51:20.168Z,58.45
2023-03-12T05:53:47.189Z,57.78
2023-03-12T05:56:17.102Z,57.15
2023-03-12T05:58:44.308Z,56.44
2023-03-12T06:01:18.704Z,56.43
2023-03-12T06:03:46.104Z,55.14
2023-03-12T06:06:13.384Z,54.94
2023-03-12T06:08:40.802Z,54.66
2023-03-12T06:11:07.585Z,55.17
2023-03-12T06:13:34.336Z,53.32
2023-03-12T06:16:11.171Z,52.54
2023-03-12T06:18:38.091Z,51.47
2023-03-12T06:21:12.237Z,52.37
2023-03-12T06:23:39.558Z,51.91
2023-03-12T06:26:06.424Z,52.13
2023-03-12T06:28:33.495Z,51.16
2023-03-12T06:31:00.094Z,51.65
2023-03-12T06:33:26.940Z,51.08
2023-03-12T06:35:58.571Z,50.73
2023-03-12T06:38:26.044Z,49.12
2023-03-12T06:40:58.373Z,50.05
2023-03-12T06:43:26.302Z,49.51
2023-03-12T06:45:55.751Z,50.14
2023-03-12T06:48:23.580Z,47.47
2023-03-12T06:50:51.516Z,48.16
2023-03-12T06:53:18.973Z,47.46
2023-03-12T06:55:46.670Z,48.62
2023-03-12T06:58:13.448Z,48.26
2023-03-12T07:00:40.037Z,47.96
2023-03-12T07:03:07.054Z,48.15
2023-03-12T07:05:33.682Z,47.54
2023-03-12T07:08:00.218Z,46.46
2023-03-12T07:10:29.513Z,46.73
2023-03-12T07:12:57.129Z,46.21
2023-03-12T07:15:24.257Z,47.67
2023-03-12T07:17:50.941Z,46.96
2023-03-12T07:20:17.787Z,45.34
2023-03-12T07:22:44.936Z,46.91
2023-03-12T07:25:12.045Z,46.59
2023-03-12T07:27:38.678Z,46.43
2023-03-12T07:30:05.890Z,46.24
2023-03-12T07:32:33.692Z,46.45
2023-03-12T07:35:00.588Z,45.14
2023-03-12T07:37:27.224Z,46.62
2023-03-12T07:39:54.837Z,45.83
2023-03-12T07:42:22.059Z,46.22
2023-03-12T07:44:48.687Z,46.06
2023-03-12T07:47:23.673Z,44.85
2023-03-12T07:49:51.687Z,46.09
2023-03-12T07:52:20.293Z,43.70
2023-03-12T07:54:47.852Z,45.09
2023-03-12T07:57:14.988Z,45.00
2023-03-12T07:59:41.656Z,44.56
2023-03-12T08:02:10.640Z,44.73
2023-03-12T08:04:37.484Z,45.00
2023-03-12T08:07:06.330Z,44.37
2023-03-12T08:09:35.077Z,44.01
2023-03-12T08:12:01.752Z,43.81
2023-03-12T08:14:31.750Z,44.24
2023-03-12T08:16:59.037Z,44.46
2023-03-12T08:19:26.874Z,43.76
2023-03-12T08:21:54.400Z,43.50
2023-03-12T08:24:22.264Z,43.47
2023-03-12T08:26:48.978Z,43.61
2023-03-12T08:29:16.407Z,43.71
2023-03-12T08:31:57.454Z,43.18
2023-03-12T08:34:28.301Z,42.80
2023-03-12T08:36:54.853Z,43.12
2023-03-12T08:39:21.370Z,39.92
2023-03-12T08:41:47.942Z,43.20
2023-03-12T08:44:14.560Z,42.35
2023-03-12T08:46:41.106Z,42.72
2023-03-12T08:49:07.681Z,43.07
2023-03-12T08:51:34.236Z,42.46
2023-03-12T08:54:00.786Z,42.92
2023-03-12T08:56:27.364Z,42.34
2023-03-12T08:58:53.970Z,42.53
2023-03-12T09:01:20.578Z,39.18
2023-03-12T09:03:49.592Z,40.42
2023-03-12T09:06:17.044Z,42.86
2023-03-12T09:08:44.439Z,42.62
2023-03-12T09:11:12.661Z,42.45
2023-03-12T09:14:02.520Z,42.35
2023-03-12T09:16:27.043Z,41.95
2023-03-12T09:18:54.106Z,42.00
2023-03-12T09:21:21.069Z,42.85
2023-03-12T09:23:47.887Z,43.49
2023-03-12T09:26:14.676Z,42.18
2023-03-12T09:28:42.575Z,42.23
2023-03-12T09:31:09.156Z,43.10
2023-03-12T09:33:36.027Z,43.21
2023-03-12T09:36:03.314Z,43.63
2023-03-12T09:38:31.981Z,43.10
2023-03-12T09:40:59.176Z,43.13
2023-03-12T09:43:32.377Z,43.90
2023-03-12T09:46:00.330Z,43.73
2023-03-12T09:48:35.658Z,42.58
2023-03-12T09:51:23.963Z,42.78
2023-03-12T09:53:57.604Z,42.29
2023-03-12T09:56:24.071Z,38.47
2023-03-12T09:58:54.609Z,42.61
2023-03-12T10:01:47.911Z,42.86
2023-03-12T10:04:26.746Z,42.59
2023-03-12T10:07:24.403Z,41.41
2023-03-12T10:10:29.287Z,37.43
2023-03-12T10:13:24.271Z,41.96
2023-03-12T10:16:27.670Z,40.88
2023-03-12T10:18:58.373Z,40.88
2023-03-12T10:21:39.549Z,41.83
2023-03-12T10:24:20.483Z,42.01
2023-03-12T10:26:51.031Z,41.97
2023-03-12T10:29:22.745Z,40.85
2023-03-12T10:32:02.235Z,39.89
2023-03-12T10:34:40.352Z,39.91
2023-03-12T10:37:18.843Z,40.27
2023-03-12T10:39:45.998Z,44.33
2023-03-12T10:42:21.302Z,45.40
2023-03-12T10:44:59.145Z,46.41
2023-03-12T10:47:30.400Z,46.38
2023-03-12T10:50:13.177Z,39.86
2023-03-12T10:52:40.029Z,47.03
2023-03-12T10:55:30.139Z,42.04
2023-03-12T10:57:57.532Z,46.31
2023-03-12T11:00:25.667Z,44.02
2023-03-12T11:02:58.806Z,43.81
2023-03-12T11:05:35.149Z,43.13
2023-03-12T11:08:04.603Z,45.61
2023-03-12T11:10:46.687Z,45.88
2023-03-12T11:13:24.309Z,37.77
2023-03-12T11:15:52.860Z,44.62
2023-03-12T11:18:33.868Z,45.34
2023-03-12T11:21:09.323Z,46.45
2023-03-12T11:23:39.437Z,45.27
2023-03-12T11:26:15.134Z,44.06
2023-03-12T11:28:44.891Z,43.14
2023-03-12T11:31:20.731Z,41.76
2023-03-12T11:33:47.659Z,41.66
2023-03-12T11:36:23.200Z,39.81
2023-03-12T11:39:20.739Z,40.36
2023-03-12T11:42:10.888Z,35.91
2023-03-12T11:45:04.435Z,38.99
2023-03-12T11:47:43.752Z,38.48
2023-03-12T11:50:25.372Z,37.95
2023-03-12T11:53:27.938Z,35.66
2023-03-12T11:55:55.485Z,38.78
2023-03-12T11:58:39.894Z,38.66
2023-03-12T12:01:06.400Z,38.28
2023-03-12T12:04:03.980Z,32.98
2023-03-12T12:06:51.083Z,37.19
2023-03-12T12:09:23.622Z,37.80
2023-03-12T12:12:17.205Z,36.59
2023-03-12T12:14:49.771Z,37.17
2023-03-12T12:17:30.482Z,37.23
2023-03-12T12:20:14.868Z,36.94
2023-03-12T12:23:18.222Z,35.55
2023-03-12T12:26:03.011Z,35.78
2023-03-12T12:29:01.418Z,36.08
2023-03-12T12:31:52.589Z,35.91
2023-03-12T12:34:36.030Z,36.09
2023-03-12T12:37:14.756Z,35.57
2023-03-12T12:39:47.763Z,34.33
2023-03-12T12:42:23.272Z,35.46
2023-03-12T12:44:53.627Z,35.17
2023-03-12T12:47:30.463Z,34.81
2023-03-12T12:49:59.942Z,34.45
2023-03-12T12:52:27.312Z,34.35
2023-03-12T12:55:24.470Z,31.73
2023-03-12T12:57:56.812Z,33.47
2023-03-12T13:00:41.864Z,33.33
2023-03-12T13:03:17.726Z,33.99
2023-03-12T13:06:05.106Z,33.71
2023-03-12T13:08:42.273Z,34.14
2023-03-12T13:11:19.346Z,32.60
2023-03-12T13:13:51.566Z,33.28
2023-03-12T13:16:18.120Z,32.91
2023-03-12T13:18:59.928Z,31.58
2023-03-12T13:21:31.300Z,33.66
2023-03-12T13:24:22.303Z,30.74
2023-03-12T13:27:19.445Z,31.35
2023-03-12T13:29:46.391Z,33.17
2023-03-12T13:32:34.535Z,32.86
2023-03-12T13:35:29.371Z,32.38
2023-03-12T13:37:56.102Z,33.38
2023-03-12T13:40:31.590Z,32.46
2023-03-12T13:43:49.710Z,33.81
2023-03-12T13:46:16.287Z,34.83
2023-03-12T13:48:47.687Z,34.87
2023-03-12T13:51:20.720Z,34.54
2023-03-12T13:54:02.834Z,33.88
2023-03-12T13:56:33.798Z,34.13
2023-03-12T13:59:07.242Z,33.09
2023-03-12T14:01:42.998Z,34.30
2023-03-12T14:04:22.462Z,34.66
2023-03-12T14:07:04.183Z,34.21
2023-03-12T14:09:48.694Z,32.99
2023-03-12T14:12:46.602Z,34.48
2023-03-12T14:15:40.117Z,33.68
2023-03-12T14:18:25.726Z,34.19
2023-03-12T14:20:59.405Z,35.30
2023-03-12T14:23:30.387Z,35.45
2023-03-12T14:26:04.040Z,36.00
2023-03-12T14:28:37.991Z,36.28
2023-03-12T14:31:14.826Z,34.40
2023-03-12T14:33:53.565Z,36.91
2023-03-12T14:36:23.991Z,36.22
2023-03-12T14:39:08.682Z,36.71
2023-03-12T14:41:42.378Z,37.01
2023-03-12T14:44:25.917Z,36.71
2023-03-12T14:47:13.000Z,37.34
2023-03-12T14:49:42.307Z,37.30
2023-03-12T14:52:12.433Z,37.11
2023-03-12T14:54:41.766Z,37.93
2023-03-12T14:57:18.955Z,37.66
2023-03-12T14:59:53.726Z,37.63
2023-03-12T15:02:21.120Z,37.79
2023-03-12T15:04:49.810Z,37.97
2023-03-12T15:07:22.025Z,38.52
2023-03-12T15:09:51.782Z,38.15
2023-03-12T15:12:34.189Z,37.54
2023-03-12T15:15:09.596Z,38.21
2023-03-12T15:17:37.176Z,38.28
2023-03-12T15:20:09.377Z,37.83
2023-03-12T15:22:37.372Z,38.09
2023-03-12T15:25:22.004Z,37.01
2023-03-12T15:27:48.970Z,38.00
2023-03-12T15:30:24.971Z,37.76
2023-03-12T15:33:08.387Z,37.58
2023-03-12T15:35:37.917Z,38.21
2023-03-12T15:38:05.110Z,38.18
2023-03-12T15:40:32.530Z,38.39
2023-03-12T15:43:01.950Z,37.73
2023-03-12T15:45:28.539Z,37.39
2023-03-12T15:47:55.771Z,37.64
2023-03-12T15:50:30.189Z,37.96
2023-03-12T15:53:25.757Z,38.82
2023-03-12T15:56:02.021Z,39.45
2023-03-12T15:58:32.225Z,39.00
2023-03-12T16:01:18.086Z,39.51
2023-03-12T16:03:45.826Z,39.12
2023-03-12T16:06:18.349Z,39.77
2023-03-12T16:08:47.043Z,39.75
2023-03-12T16:11:20.538Z,39.10
2023-03-12T16:13:51.199Z,39.69
2023-03-12T16:16:18.146Z,40.29
2023-03-12T16:18:44.988Z,40.35
2023-03-12T16:21:11.958Z,39.82
2023-03-12T16:23:38.647Z,39.75
2023-03-12T16:26:05.951Z,39.86
2023-03-12T16:28:35.143Z,40.21
2023-03-12T16:31:02.210Z,40.15
2023-03-12T16:33:28.811Z,40.18
2023-03-12T16:35:57.069Z,40.21
2023-03-12T16:38:23.815Z,39.77
2023-03-12T16:40:52.030Z,40.48
2023-03-12T16:43:24.057Z,40.19
2023-03-12T16:45:52.232Z,40.06
2023-03-12T16:48:21.431Z,41.11
2023-03-12T16:50:56.941Z,40.77
2023-03-12T16:53:24.142Z,40.34
2023-03-12T16:55:56.461Z,40.52
2023-03-12T16:58:25.349Z,40.73
2023-03-12T17:00:53.861Z,40.74
2023-03-12T17:03:35.771Z,40.49
2023-03-12T17:06:03.456Z,40.44
2023-03-12T17:08:30.043Z,40.71
2023-03-12T17:10:57.623Z,40.34
2023-03-12T17:13:26.917Z,41.28
2023-03-12T17:15:53.972Z,40.95
2023-03-12T17:18:20.830Z,40.92
2023-03-12T17:20:50.926Z,41.33
2023-03-12T17:23:18.259Z,40.65
2023-03-12T17:25:44.970Z,41.69
2023-03-12T17:28:13.643Z,41.56
2023-03-12T17:30:40.250Z,41.67
2023-03-12T17:33:10.866Z,41.63
2023-03-12T17:35:37.820Z,42.14
2023-03-12T17:38:04.483Z,41.76
2023-03-12T17:40:31.212Z,42.28
2023-03-12T17:42:58.053Z,41.78
2023-03-12T17:45:24.912Z,42.17
2023-03-12T17:47:51.587Z,42.27
2023-03-12T17:50:18.495Z,42.62
2023-03-12T17:52:45.329Z,42.40
2023-03-12T17:55:12.257Z,42.38
2023-03-12T17:57:39.280Z,42.76
2023-03-12T18:00:12.765Z,42.74
2023-03-12T18:02:40.346Z,43.11
2023-03-12T18:05:09.092Z,43.28
2023-03-12T18:07:36.219Z,43.62
2023-03-12T18:10:03.131Z,43.53
2023-03-12T18:12:29.710Z,43.61
2023-03-12T18:14:56.322Z,43.56
2023-03-12T18:17:23.022Z,43.76
2023-03-12T18:19:49.600Z,43.75
2023-03-12T18:22:16.366Z,44.25
2023-03-12T18:24:42.943Z,43.61
2023-03-12T18:27:09.503Z,44.12
2023-03-12T18:29:36.921Z,43.94
2023-03-12T18:32:04.192Z,44.27
2023-03-12T18:34:30.730Z,43.94
2023-03-12T18:36:57.318Z,43.96
2023-03-12T18:39:24.028Z,44.29
2023-03-12T18:41:50.596Z,43.86
2023-03-12T18:44:17.149Z,43.82
2023-03-12T18:46:43.826Z,43.88
2023-03-12T18:49:12.467Z,44.40
2023-03-12T18:51:39.370Z,45.06
2023-03-12T18:54:06.063Z,44.62
2023-03-12T18:56:32.859Z,44.87
2023-03-12T18:58:59.420Z,44.88
2023-03-12T19:01:26.492Z,44.35
2023-03-12T19:03:53.367Z,44.70
2023-03-12T19:06:19.956Z,45.17
2023-03-12T19:08:46.575Z,45.36
2023-03-12T19:11:15.665Z,45.59
2023-03-12T19:13:42.910Z,45.54
2023-03-12T19:16:11.514Z,45.14
2023-03-12T19:18:39.373Z,45.38
2023-03-12T19:21:09.353Z,45.94
2023-03-12T19:23:36.619Z,45.59
2023-03-12T19:26:04.227Z,45.27
2023-03-12T19:28:31.295Z,44.93
2023-03-12T19:31:03.632Z,44.92
2023-03-12T19:33:30.687Z,45.02
2023-03-12T19:35:57.905Z,44.84
2023-03-12T19:38:25.145Z,45.48
2023-03-12T19:40:55.270Z,45.78
2023-03-12T19:43:22.676Z,45.60
2023-03-12T19:45:49.473Z,45.80
2023-03-12T19:48:16.187Z,45.98
2023-03-12T19:50:45.074Z,46.30
2023-03-12T19:53:12.573Z,46.13
2023-03-12T19:55:39.301Z,46.19
2023-03-12T19:58:05.987Z,46.32
2023-03-12T20:00:32.562Z,46.10
2023-03-12T20:02:59.762Z,46.43
2023-03-12T20:05:26.418Z,46.72
2023-03-12T20:07:53.101Z,46.41
2023-03-12T20:10:19.783Z,46.52
2023-03-12T20:12:46.908Z,46.53
2023-03-12T20:15:13.538Z,46.74
2023-03-12T20:17:40.316Z,46.03
2023-03-12T20:20:08.792Z,45.95
2023-03-12T20:22:38.039Z,46.31
2023-03-12T20:25:06.265Z,46.12
2023-03-12T20:27:34.282Z,46.05
2023-03-12T20:30:01.028Z,45.63
2023-03-12T20:32:28.773Z,45.94
2023-03-12T20:34:55.456Z,46.49
2023-03-12T20:37:22.066Z,46.51
2023-03-12T20:39:48.634Z,47.02
2023-03-12T20:42:15.249Z,46.79
2023-03-12T20:44:41.876Z,46.79
2023-03-12T20:47:08.466Z,47.01
2023-03-12T20:49:35.159Z,47.03
2023-03-12T20:52:01.993Z,46.74
2023-03-12T20:54:28.586Z,46.96
2023-03-12T20:56:55.223Z,47.99
2023-03-12T20:59:21.786Z,48.09
2023-03-12T21:01:48.335Z,48.68
2023-03-12T21:04:15.125Z,48.68
2023-03-12T21:06:41.711Z,48.62
2023-03-12T21:09:08.392Z,49.06
2023-03-12T21:11:35.160Z,49.28
2023-03-12T21:14:01.802Z,49.60
2023-03-12T21:16:28.432Z,49.75
2023-03-12T21:18:58.771Z,49.61
2023-03-12T21:21:25.661Z,49.59
2023-03-12T21:23:52.350Z,50.29
2023-03-12T21:26:19.091Z,50.04
2023-03-12T21:28:46.036Z,49.79
2023-03-12T21:31:16.095Z,50.06
2023-03-12T21:33:42.928Z,50.78
2023-03-12T21:36:12.373Z,50.21
2023-03-12T21:38:39.843Z,50.66
2023-03-12T21:41:07.377Z,50.50
2023-03-12T21:43:34.192Z,50.55
2023-03-12T21:46:09.250Z,51.38
2023-03-12T21:48:36.492Z,50.52
2023-03-12T21:51:09.357Z,51.86
2023-03-12T21:53:36.541Z,51.52
2023-03-12T21:56:05.376Z,50.69
2023-03-12T21:58:32.848Z,51.15
2023-03-12T22:01:04.070Z,50.98
2023-03-12T22:03:30.743Z,50.75
2023-03-12T22:05:57.268Z,50.69
2023-03-12T22:08:23.837Z,52.10
2023-03-12T22:10:50.445Z,51.83
2023-03-12T22:13:17.128Z,51.36
2023-03-12T22:15:47.330Z,53.05
2023-03-12T22:18:13.915Z,53.56
2023-03-12T22:20:40.462Z,52.53
2023-03-12T22:23:06.997Z,53.17
2023-03-12T22:25:34.698Z,52.84
2023-03-12T22:28:01.259Z,52.78
2023-03-12T22:30:28.721Z,52.46
2023-03-12T22:32:55.324Z,51.84
2023-03-12T22:35:25.815Z,51.47
2023-03-12T22:37:53.067Z,51.88
2023-03-12T22:40:20.185Z,52.07
2023-03-12T22:42:50.522Z,52.75
2023-03-12T22:45:17.588Z,52.37
2023-03-12T22:47:44.785Z,53.03
2023-03-12T22:50:12.675Z,52.23
2023-03-12T22:52:39.585Z,52.72
2023-03-12T22:55:06.614Z,52.30
2023-03-12T22:57:34.637Z,52.10
2023-03-12T23:00:01.195Z,52.32
2023-03-12T23:02:27.799Z,52.43
2023-03-12T23:04:54.430Z,52.01
2023-03-12T23:07:21.055Z,51.86
2023-03-12T23:09:47.650Z,52.50
2023-03-12T23:12:14.234Z,52.72
2023-03-12T23:14:40.802Z,53.08
2023-03-12T23:17:08.948Z,53.29
2023-03-12T23:19:36.368Z,52.78
2023-03-12T23:22:03.044Z,52.91
2023-03-12T23:24:31.032Z,53.14
2023-03-12T23:26:57.723Z,52.72
2023-03-12T23:29:24.304Z,52.59
2023-03-12T23:31:50.889Z,53.17
2023-03-12T23:34:17.686Z,52.87
2023-03-12T23:36:46.073Z,53.77
2023-03-12T23:39:13.375Z,53.67
2023-03-12T23:41:40.151Z,54.05
2023-03-12T23:44:06.787Z,53.67
2023-03-12T23:46:34.015Z,53.93
2023-03-12T23:49:00.831Z,53.72
2023-03-12T23:51:30.332Z,53.99
2023-03-12T23:54:02.487Z,54.44
2023-03-12T23:56:33.362Z,54.46
2023-03-12T23:58:59.917Z,53.84
